createdAt,value
2018-11-02T00:01:31.752Z,82.64
2018-11-02T00:04:04.288Z,82.78
2018-11-02T00:06:36.760Z,82.59
2018-11-02T00:09:09.104Z,83.26
2018-11-02T00:11:41.556Z,82.90
2018-11-02T00:14:13.917Z,83.30
2018-11-02T00:16:46.225Z,82.07
2018-11-02T00:19:36.659Z,81.52
2018-11-02T00:22:09.213Z,81.62
2018-11-02T00:24:41.590Z,81.73
2018-11-02T00:27:14.075Z,82.68
2018-11-02T00:29:46.612Z,83.39
2018-11-02T00:32:19.173Z,83.71
2018-11-02T00:34:51.530Z,83.76
2018-11-02T00:37:23.864Z,83.38
2018-11-02T00:39:56.478Z,83.59
2018-11-02T00:42:28.900Z,82.91
2018-11-02T00:45:01.272Z,82.78
2018-11-02T00:47:33.805Z,83.07
2018-11-02T00:50:08.446Z,82.65
2018-11-02T00:52:40.977Z,82.49
2018-11-02T00:55:13.383Z,82.90
2018-11-02T00:57:45.730Z,82.79
2018-11-02T01:00:18.246Z,82.36
2018-11-02T01:02:50.575Z,82.73
2018-11-02T01:05:23.051Z,82.38
2018-11-02T01:07:55.415Z,81.87
2018-11-02T01:10:27.922Z,81.14
2018-11-02T01:13:00.266Z,81.09
2018-11-02T01:15:32.528Z,80.73
2018-11-02T01:18:05.443Z,81.75
2018-11-02T01:20:37.850Z,81.56
2018-11-02T01:23:10.278Z,82.38
2018-11-02T01:25:43.354Z,82.87
2018-11-02T01:28:15.725Z,82.75
2018-11-02T01:30:48.111Z,84.00
2018-11-02T01:33:38.495Z,84.43
2018-11-02T01:36:10.803Z,84.48
2018-11-02T01:38:43.196Z,83.99
2018-11-02T01:41:15.418Z,84.42
2018-11-02T01:43:47.717Z,84.64
2018-11-02T01:46:20.057Z,84.08
2018-11-02T01:48:52.379Z,84.64
2018-11-02T01:51:24.798Z,84.65
2018-11-02T01:53:57.253Z,84.73
2018-11-02T01:56:29.555Z,84.34
2018-11-02T01:59:02.082Z,84.53
2018-11-02T02:01:34.445Z,84.34
2018-11-02T02:04:06.790Z,84.75
2018-11-02T02:06:39.212Z,84.80
2018-11-02T02:09:12.412Z,84.43
2018-11-02T02:11:44.906Z,84.68
2018-11-02T02:14:17.438Z,84.75
2018-11-02T02:16:49.865Z,83.83
2018-11-02T02:19:22.639Z,83.35
2018-11-02T02:21:55.058Z,82.05
2018-11-02T02:24:27.422Z,82.37
2018-11-02T02:26:59.830Z,81.27
2018-11-02T02:29:32.118Z,81.81
2018-11-02T02:32:04.657Z,80.87
2018-11-02T02:34:37.010Z,80.60
2018-11-02T02:37:09.418Z,81.11
2018-11-02T02:39:41.741Z,81.89
2018-11-02T02:42:14.207Z,81.96
2018-11-02T02:44:46.513Z,81.85
2018-11-02T02:47:18.846Z,82.96
2018-11-02T02:49:51.374Z,83.35
2018-11-02T02:52:23.845Z,83.73
2018-11-02T02:54:56.388Z,83.90
2018-11-02T02:57:28.686Z,84.56
2018-11-02T03:00:01.113Z,84.93
2018-11-02T03:02:33.375Z,84.29
2018-11-02T03:05:05.998Z,83.05
2018-11-02T03:07:38.862Z,83.35
2018-11-02T03:10:11.476Z,82.70
2018-11-02T03:12:43.811Z,82.52
2018-11-02T03:15:16.342Z,83.31
2018-11-02T03:17:48.826Z,83.71
2018-11-02T03:20:21.178Z,83.48
2018-11-02T03:22:53.453Z,84.02
2018-11-02T03:25:25.744Z,83.08
2018-11-02T03:27:58.179Z,83.13
2018-11-02T03:30:30.507Z,83.24
2018-11-02T03:33:02.817Z,82.13
2018-11-02T03:35:35.226Z,83.16
2018-11-02T03:38:07.595Z,83.44
2018-11-02T03:40:40.002Z,83.31
2018-11-02T03:43:12.554Z,83.54
2018-11-02T03:45:44.957Z,83.44
2018-11-02T03:48:17.359Z,83.36
2018-11-02T03:50:49.825Z,83.52
2018-11-02T03:53:22.267Z,83.32
2018-11-02T03:55:54.610Z,83.30
2018-11-02T03:58:26.918Z,82.68
2018-11-02T04:00:59.487Z,82.07
2018-11-02T04:03:31.812Z,81.22
2018-11-02T04:06:05.054Z,81.06
2018-11-02T04:08:37.493Z,80.93
2018-11-02T04:11:09.925Z,80.99
2018-11-02T04:13:42.427Z,80.38
2018-11-02T04:16:14.782Z,80.89
2018-11-02T04:18:47.192Z,80.95
2018-11-02T04:21:19.584Z,80.34
2018-11-02T04:23:51.863Z,80.28
2018-11-02T04:26:24.142Z,80.55
2018-11-02T04:28:56.431Z,80.44
2018-11-02T04:31:28.826Z,80.61
2018-11-02T04:34:01.239Z,80.67
2018-11-02T04:36:33.645Z,80.90
2018-11-02T04:39:08.249Z,80.73
2018-11-02T04:41:40.615Z,81.07
2018-11-02T04:44:13.071Z,81.34
2018-11-02T04:46:45.373Z,81.91
2018-11-02T04:49:17.873Z,81.90
2018-11-02T04:51:50.416Z,81.12
2018-11-02T04:54:22.844Z,82.10
2018-11-02T04:56:55.313Z,81.63
2018-11-02T04:59:27.707Z,80.77
2018-11-02T05:02:00.161Z,80.88
2018-11-02T05:04:32.531Z,80.91
2018-11-02T05:07:05.138Z,81.38
2018-11-02T05:09:37.478Z,82.40
2018-11-02T05:12:09.721Z,82.32
2018-11-02T05:14:42.133Z,82.28
2018-11-02T05:17:14.798Z,81.59
2018-11-02T05:19:47.166Z,81.91
2018-11-02T05:22:19.584Z,83.32
2018-11-02T05:24:51.882Z,83.72
2018-11-02T05:27:24.219Z,83.64
2018-11-02T05:29:56.526Z,82.80
2018-11-02T05:32:28.874Z,82.75
2018-11-02T05:35:01.153Z,82.08
2018-11-02T05:37:33.457Z,80.78
2018-11-02T05:40:06.545Z,81.02
2018-11-02T05:42:38.872Z,81.18
2018-11-02T05:45:11.217Z,81.56
2018-11-02T05:47:43.574Z,80.89
2018-11-02T05:50:16.033Z,80.75
2018-11-02T05:52:48.494Z,80.65
2018-11-02T05:55:21.018Z,80.83
2018-11-02T05:57:53.476Z,81.54
2018-11-02T06:00:25.758Z,80.88
2018-11-02T06:02:58.075Z,80.88
2018-11-02T06:05:30.705Z,80.97
2018-11-02T06:08:03.176Z,80.88
2018-11-02T06:10:35.536Z,81.09
2018-11-02T06:13:08.117Z,81.22
2018-11-02T06:15:40.461Z,80.79
2018-11-02T06:18:12.738Z,81.18
2018-11-02T06:20:45.026Z,81.68
2018-11-02T06:23:17.653Z,80.96
2018-11-02T06:25:49.945Z,80.99
2018-11-02T06:28:22.486Z,80.65
2018-11-02T06:30:54.873Z,81.26
2018-11-02T06:33:27.369Z,80.57
2018-11-02T06:35:59.874Z,80.73
2018-11-02T06:38:32.200Z,81.61
2018-11-02T06:41:04.923Z,80.90
2018-11-02T06:43:37.354Z,81.25
2018-11-02T06:46:09.766Z,81.19
2018-11-02T06:48:42.093Z,81.31
2018-11-02T06:51:14.503Z,81.69
2018-11-02T06:53:46.965Z,81.25
2018-11-02T06:56:19.356Z,80.67
2018-11-02T06:58:52.040Z,79.91
2018-11-02T07:01:24.358Z,79.29
2018-11-02T07:03:56.737Z,78.53
2018-11-02T07:06:29.075Z,77.52
2018-11-02T07:09:01.286Z,77.48
2018-11-02T07:11:33.529Z,76.66
2018-11-02T07:14:06.163Z,76.76
2018-11-02T07:16:38.742Z,76.18
2018-11-02T07:19:11.094Z,75.19
2018-11-02T07:21:43.538Z,75.28
2018-11-02T07:24:15.831Z,76.36
2018-11-02T07:26:48.068Z,76.20
2018-11-02T07:29:20.315Z,75.63
2018-11-02T07:31:52.718Z,74.69
2018-11-02T07:34:25.067Z,75.13
2018-11-02T07:36:57.233Z,74.31
2018-11-02T07:39:32.056Z,74.62
2018-11-02T07:42:04.425Z,75.31
2018-11-02T07:44:36.914Z,75.08
2018-11-02T07:47:09.180Z,74.89
2018-11-02T07:49:41.641Z,72.92
2018-11-02T07:52:13.915Z,73.04
2018-11-02T07:54:46.173Z,72.09
2018-11-02T07:57:18.542Z,72.11
2018-11-02T07:59:50.974Z,71.08
2018-11-02T08:02:23.281Z,70.57
2018-11-02T08:04:55.645Z,69.43
2018-11-02T08:07:27.978Z,69.14
2018-11-02T08:10:00.283Z,68.71
2018-11-02T08:12:32.676Z,69.29
2018-11-02T08:15:06.935Z,68.67
2018-11-02T08:17:40.081Z,68.37
2018-11-02T08:20:13.176Z,70.08
2018-11-02T08:22:45.422Z,69.97
2018-11-02T08:25:17.697Z,70.18
2018-11-02T08:27:50.074Z,69.80
2018-11-02T08:30:22.506Z,70.19
2018-11-02T08:32:54.810Z,69.75
2018-11-02T08:35:27.150Z,69.69
2018-11-02T08:37:59.390Z,70.14
2018-11-02T08:40:31.698Z,69.86
2018-11-02T08:43:04.282Z,69.51
2018-11-02T08:45:36.575Z,69.24
2018-11-02T08:48:08.946Z,69.33
2018-11-02T08:50:41.369Z,69.46
2018-11-02T08:53:13.682Z,69.32
2018-11-02T08:55:46.197Z,69.96
2018-11-02T08:58:18.746Z,70.58
2018-11-02T09:00:50.829Z,70.00
2018-11-02T09:03:23.281Z,70.21
2018-11-02T09:05:55.661Z,70.08
2018-11-02T09:08:27.993Z,70.02
2018-11-02T09:11:00.360Z,69.83
2018-11-02T09:13:33.114Z,70.41
2018-11-02T09:16:05.731Z,69.50
2018-11-02T09:18:38.146Z,69.25
2018-11-02T09:21:10.818Z,68.58
2018-11-02T09:23:43.589Z,68.51
2018-11-02T09:26:15.892Z,69.04
2018-11-02T09:28:48.234Z,68.95
2018-11-02T09:31:20.653Z,68.98
2018-11-02T09:33:53.042Z,68.93
2018-11-02T09:36:25.604Z,69.03
2018-11-02T09:38:57.915Z,68.99
2018-11-02T09:41:30.378Z,69.03
2018-11-02T09:44:02.892Z,68.77
2018-11-02T09:46:35.845Z,68.33
2018-11-02T09:49:08.291Z,68.15
2018-11-02T09:51:40.845Z,67.97
2018-11-02T09:54:12.989Z,67.96
2018-11-02T09:56:45.381Z,67.50
2018-11-02T09:59:17.806Z,67.59
2018-11-02T10:01:50.171Z,67.14
2018-11-02T10:04:22.808Z,67.46
2018-11-02T10:06:55.680Z,66.07
2018-11-02T10:09:28.146Z,66.90
2018-11-02T10:12:00.539Z,67.10
2018-11-02T10:14:32.875Z,67.46
2018-11-02T10:17:05.518Z,67.01
2018-11-02T10:19:38.074Z,67.22
2018-11-02T10:22:10.493Z,66.62
2018-11-02T10:24:43.107Z,66.49
2018-11-02T10:27:15.753Z,65.89
2018-11-02T10:29:48.228Z,65.62
2018-11-02T10:32:20.690Z,65.34
2018-11-02T10:34:53.146Z,64.94
2018-11-02T10:37:25.683Z,64.09
2018-11-02T10:39:58.178Z,64.19
2018-11-02T10:42:30.621Z,64.17
2018-11-02T10:45:03.605Z,64.03
2018-11-02T10:47:36.183Z,63.97
2018-11-02T10:50:08.673Z,64.00
2018-11-02T10:52:41.189Z,62.56
2018-11-02T10:55:13.559Z,62.33
2018-11-02T10:57:46.317Z,63.09
2018-11-02T11:00:24.120Z,63.37
2018-11-02T11:02:56.611Z,63.55
2018-11-02T11:05:29.140Z,63.43
2018-11-02T11:08:01.606Z,64.08
2018-11-02T11:10:33.956Z,64.06
2018-11-02T11:13:06.750Z,63.71
2018-11-02T11:15:38.815Z,63.25
2018-11-02T11:18:11.229Z,62.62
2018-11-02T11:20:43.718Z,62.66
2018-11-02T11:23:16.311Z,61.24
2018-11-02T11:25:48.867Z,61.37
2018-11-02T11:28:21.375Z,61.12
2018-11-02T11:30:53.697Z,61.08
2018-11-02T11:33:26.275Z,60.93
2018-11-02T11:35:58.622Z,60.65
2018-11-02T11:38:33.035Z,60.39
2018-11-02T11:41:05.475Z,59.91
2018-11-02T11:43:38.060Z,58.88
2018-11-02T11:46:10.634Z,59.56
2018-11-02T11:48:43.310Z,60.18
2018-11-02T11:51:15.568Z,58.96
2018-11-02T11:53:48.322Z,59.40
2018-11-02T11:56:20.750Z,59.58
2018-11-02T11:58:53.164Z,59.72
2018-11-02T12:01:25.638Z,59.98
2018-11-02T12:03:58.067Z,59.12
2018-11-02T12:06:30.458Z,59.67
2018-11-02T12:09:03.821Z,59.33
2018-11-02T12:11:36.205Z,59.66
2018-11-02T12:14:08.580Z,59.90
2018-11-02T12:16:41.015Z,60.38
2018-11-02T12:19:13.820Z,59.85
2018-11-02T12:21:46.172Z,59.72
2018-11-02T12:24:18.534Z,59.13
2018-11-02T12:26:51.034Z,58.16
2018-11-02T12:29:23.478Z,58.24
2018-11-02T12:31:55.860Z,58.78
2018-11-02T12:34:28.343Z,58.76
2018-11-02T12:37:00.781Z,59.14
2018-11-02T12:39:33.171Z,59.65
2018-11-02T12:42:05.550Z,59.17
2018-11-02T12:44:37.898Z,59.59
2018-11-02T12:47:10.282Z,59.65
2018-11-02T12:49:42.947Z,59.64
2018-11-02T12:52:15.030Z,59.85
2018-11-02T12:54:47.446Z,59.61
2018-11-02T12:57:19.861Z,59.49
2018-11-02T12:59:52.338Z,60.17
2018-11-02T13:02:24.685Z,60.33
2018-11-02T13:04:57.123Z,60.41
2018-11-02T13:07:29.579Z,60.62
2018-11-02T13:10:02.279Z,60.49
2018-11-02T13:12:34.595Z,59.74
2018-11-02T13:15:09.126Z,59.96
2018-11-02T13:17:42.584Z,58.74
2018-11-02T13:20:17.470Z,59.10
2018-11-02T13:22:51.902Z,57.93
2018-11-02T13:25:24.293Z,58.66
2018-11-02T13:27:56.679Z,58.98
2018-11-02T13:30:29.311Z,59.08
2018-11-02T13:33:01.575Z,59.35
2018-11-02T13:35:34.019Z,59.79
2018-11-02T13:38:06.492Z,59.62
2018-11-02T13:40:38.861Z,59.33
2018-11-02T13:43:11.559Z,59.55
2018-11-02T13:45:43.804Z,59.63
2018-11-02T13:48:16.189Z,59.06
2018-11-02T13:50:48.579Z,58.83
2018-11-02T13:53:21.105Z,58.77
2018-11-02T13:55:53.469Z,59.10
2018-11-02T13:58:26.121Z,59.21
2018-11-02T14:00:58.751Z,59.02
2018-11-02T14:03:31.101Z,58.87
2018-11-02T14:06:03.670Z,59.33
2018-11-02T14:08:36.116Z,59.52
2018-11-02T14:11:08.489Z,59.58
2018-11-02T14:13:40.858Z,59.59
2018-11-02T14:16:13.385Z,59.77
2018-11-02T14:18:45.826Z,59.86
2018-11-02T14:21:18.193Z,60.26
2018-11-02T14:23:50.767Z,60.68
2018-11-02T14:26:23.148Z,60.96
2018-11-02T14:28:55.493Z,60.51
2018-11-02T14:31:27.862Z,60.69
2018-11-02T14:34:00.297Z,61.17
2018-11-02T14:36:32.659Z,61.08
2018-11-02T14:39:08.288Z,61.38
2018-11-02T14:41:41.534Z,61.52
2018-11-02T14:44:13.938Z,60.70
2018-11-02T14:46:47.188Z,60.95
2018-11-02T14:49:19.610Z,61.07
2018-11-02T14:51:52.111Z,61.26
2018-11-02T14:54:24.637Z,60.19
2018-11-02T14:56:57.034Z,60.79
2018-11-02T14:59:29.449Z,60.89
2018-11-02T15:02:01.883Z,61.09
2018-11-02T15:04:39.063Z,61.72
2018-11-02T15:07:14.756Z,62.08
2018-11-02T15:09:47.963Z,62.09
2018-11-02T15:12:20.389Z,62.48
2018-11-02T15:14:52.746Z,62.82
2018-11-02T15:17:25.141Z,63.09
2018-11-02T15:19:57.531Z,63.42
2018-11-02T15:22:29.942Z,63.74
2018-11-02T15:25:02.347Z,63.80
2018-11-02T15:27:34.742Z,63.95
2018-11-02T15:30:10.107Z,63.99
2018-11-02T15:32:43.986Z,64.28
2018-11-02T15:35:18.468Z,64.53
2018-11-02T15:37:51.860Z,65.26
2018-11-02T15:40:24.979Z,65.66
2018-11-02T15:42:57.752Z,65.41
2018-11-02T15:45:31.018Z,66.41
2018-11-02T15:48:03.403Z,66.76
2018-11-02T15:50:35.889Z,67.12
2018-11-02T15:53:08.449Z,67.01
2018-11-02T15:55:40.908Z,67.52
2018-11-02T15:58:13.909Z,67.79
2018-11-02T16:00:46.934Z,67.80
2018-11-02T16:03:20.420Z,68.45
2018-11-02T16:05:53.825Z,68.83
2018-11-02T16:08:26.743Z,68.89
2018-11-02T16:10:59.220Z,68.98
2018-11-02T16:13:31.687Z,69.31
2018-11-02T16:16:04.338Z,69.62
2018-11-02T16:18:36.891Z,69.99
2018-11-02T16:21:09.248Z,69.83
2018-11-02T16:23:41.628Z,69.04
2018-11-02T16:26:15.134Z,69.09
2018-11-02T16:28:48.151Z,69.57
2018-11-02T16:31:20.820Z,69.86
2018-11-02T16:33:53.393Z,70.42
2018-11-02T16:36:25.885Z,70.57
2018-11-02T16:38:58.361Z,71.14
2018-11-02T16:41:30.740Z,71.14
2018-11-02T16:44:03.263Z,71.65
2018-11-02T16:46:35.746Z,71.88
2018-11-02T16:49:08.331Z,71.94
2018-11-02T16:51:41.059Z,72.65
2018-11-02T16:54:14.464Z,72.77
2018-11-02T16:56:48.286Z,72.79
2018-11-02T16:59:21.351Z,73.63
2018-11-02T17:01:54.623Z,73.39
2018-11-02T17:04:27.176Z,73.18
2018-11-02T17:06:59.606Z,73.56
2018-11-02T17:09:31.964Z,73.75
2018-11-02T17:12:04.569Z,73.90
2018-11-02T17:14:37.122Z,74.12
2018-11-02T17:17:09.729Z,73.90
2018-11-02T17:19:42.292Z,73.80
2018-11-02T17:22:15.778Z,73.91
2018-11-02T17:24:48.467Z,73.87
2018-11-02T17:27:21.697Z,74.52
2018-11-02T17:29:54.726Z,74.59
2018-11-02T17:32:27.330Z,74.86
2018-11-02T17:34:59.814Z,74.79
2018-11-02T17:37:32.339Z,75.13
2018-11-02T17:40:05.854Z,75.11
2018-11-02T17:42:38.292Z,75.02
2018-11-02T17:45:10.734Z,75.35
2018-11-02T17:47:43.385Z,75.48
2018-11-02T17:50:17.051Z,75.69
2018-11-02T17:52:50.320Z,75.54
2018-11-02T17:55:23.243Z,76.10
2018-11-02T17:57:56.211Z,75.99
2018-11-02T18:00:28.692Z,76.22
2018-11-02T18:03:01.168Z,76.17
2018-11-02T18:05:33.605Z,76.05
2018-11-02T18:08:06.231Z,76.33
2018-11-02T18:10:38.784Z,76.27
2018-11-02T18:13:11.223Z,76.20
2018-11-02T18:15:44.993Z,76.51
2018-11-02T18:18:18.367Z,76.47
2018-11-02T18:20:52.114Z,76.32
2018-11-02T18:23:25.616Z,76.48
2018-11-02T18:25:58.366Z,76.70
2018-11-02T18:28:31.262Z,76.41
2018-11-02T18:31:04.629Z,76.92
2018-11-02T18:33:37.586Z,76.99
2018-11-02T18:36:10.040Z,77.14
2018-11-02T18:38:42.489Z,76.89
2018-11-02T18:41:14.926Z,77.18
2018-11-02T18:43:47.371Z,77.40
2018-11-02T18:46:19.756Z,77.57
2018-11-02T18:48:52.292Z,77.46
2018-11-02T18:51:26.641Z,77.36
2018-11-02T18:53:59.499Z,77.63
2018-11-02T18:56:32.891Z,77.81
2018-11-02T18:59:06.420Z,78.01
2018-11-02T19:01:38.998Z,78.23
2018-11-02T19:04:11.574Z,78.26
2018-11-02T19:06:44.178Z,77.93
2018-11-02T19:09:16.700Z,78.47
2018-11-02T19:11:49.131Z,78.31
2018-11-02T19:14:21.502Z,78.28
2018-11-02T19:16:56.299Z,78.46
2018-11-02T19:19:29.633Z,78.15
2018-11-02T19:22:02.790Z,78.49
2018-11-02T19:24:35.269Z,78.29
2018-11-02T19:27:07.803Z,78.42
2018-11-02T19:29:40.195Z,78.32
2018-11-02T19:32:12.845Z,78.32
2018-11-02T19:34:47.143Z,78.38
2018-11-02T19:37:19.892Z,78.21
2018-11-02T19:39:53.464Z,78.71
2018-11-02T19:42:26.290Z,78.24
2018-11-02T19:44:58.936Z,78.40
2018-11-02T19:47:37.227Z,78.54
2018-11-02T19:50:11.987Z,78.59
2018-11-02T19:52:45.411Z,78.74
2018-11-02T19:55:18.709Z,78.89
2018-11-02T19:57:51.789Z,79.27
2018-11-02T20:00:24.847Z,79.14
2018-11-02T20:02:57.389Z,79.04
2018-11-02T20:05:30.084Z,79.57
2018-11-02T20:08:02.696Z,79.46
2018-11-02T20:10:35.160Z,79.72
2018-11-02T20:13:08.087Z,79.70
2018-11-02T20:15:40.804Z,79.50
2018-11-02T20:18:13.447Z,79.87
2018-11-02T20:20:47.419Z,79.75
2018-11-02T20:23:20.362Z,79.72
2018-11-02T20:25:52.880Z,79.99
2018-11-02T20:28:26.238Z,79.91
2018-11-02T20:30:59.800Z,79.78
2018-11-02T20:33:33.007Z,80.25
2018-11-02T20:36:05.973Z,80.33
2018-11-02T20:38:38.502Z,79.98
2018-11-02T20:41:11.132Z,79.92
2018-11-02T20:43:43.590Z,79.79
2018-11-02T20:46:16.050Z,80.20
2018-11-02T20:48:48.567Z,79.70
2018-11-02T20:51:21.089Z,79.78
2018-11-02T20:53:53.518Z,79.91
2018-11-02T20:56:28.348Z,79.41
2018-11-02T20:59:01.360Z,79.80
2018-11-02T21:01:34.484Z,79.30
2018-11-02T21:04:07.256Z,79.53
2018-11-02T21:06:39.881Z,79.92
2018-11-02T21:09:13.194Z,80.08
2018-11-02T21:11:45.469Z,80.30
2018-11-02T21:14:17.948Z,80.41
2018-11-02T21:16:50.446Z,79.90
2018-11-02T21:19:22.837Z,80.01
2018-11-02T21:21:56.257Z,80.42
2018-11-02T21:24:28.646Z,80.33
2018-11-02T21:27:01.242Z,80.63
2018-11-02T21:29:33.633Z,81.17
2018-11-02T21:32:06.039Z,80.67
2018-11-02T21:34:38.490Z,80.68
2018-11-02T21:37:10.946Z,80.88
2018-11-02T21:39:43.486Z,81.07
2018-11-02T21:42:17.941Z,80.86
2018-11-02T21:44:52.866Z,80.62
2018-11-02T21:47:25.819Z,80.50
2018-11-02T21:49:58.359Z,80.83
2018-11-02T21:52:30.842Z,81.04
2018-11-02T21:55:03.486Z,81.63
2018-11-02T21:57:36.068Z,81.25
2018-11-02T22:00:18.800Z,81.05
2018-11-02T22:02:51.156Z,80.96
2018-11-02T22:05:23.534Z,81.18
2018-11-02T22:07:56.025Z,81.51
2018-11-02T22:10:28.542Z,81.43
2018-11-02T22:13:01.114Z,81.42
2018-11-02T22:15:33.699Z,81.66
2018-11-02T22:18:06.154Z,81.01
2018-11-02T22:20:38.703Z,81.14
2018-11-02T22:23:11.314Z,80.75
2018-11-02T22:25:43.870Z,80.64
2018-11-02T22:28:16.273Z,80.87
2018-11-02T22:30:48.700Z,81.45
2018-11-02T22:33:20.999Z,80.83
2018-11-02T22:35:55.966Z,80.98
2018-11-02T22:38:28.362Z,80.77
2018-11-02T22:41:00.821Z,80.35
2018-11-02T22:43:33.322Z,80.23
2018-11-02T22:46:06.645Z,80.73
2018-11-02T22:48:38.994Z,80.71
2018-11-02T22:51:11.350Z,80.88
2018-11-02T22:53:43.858Z,80.31
2018-11-02T22:56:16.258Z,80.95
2018-11-02T22:58:48.647Z,80.99
2018-11-02T23:01:26.130Z,80.67
2018-11-02T23:03:59.890Z,80.79
2018-11-02T23:06:32.337Z,80.90
2018-11-02T23:09:07.539Z,81.39
2018-11-02T23:11:40.074Z,81.31
2018-11-02T23:14:12.770Z,80.73
2018-11-02T23:16:45.234Z,81.27
2018-11-02T23:19:17.662Z,81.10
2018-11-02T23:21:50.029Z,80.59
2018-11-02T23:24:22.642Z,80.80
2018-11-02T23:26:55.039Z,80.30
2018-11-02T23:29:27.537Z,80.65
2018-11-02T23:32:00.069Z,80.43
2018-11-02T23:34:32.804Z,80.68
2018-11-02T23:37:05.197Z,80.58
2018-11-02T23:39:37.681Z,81.18
2018-11-02T23:42:10.131Z,80.80
2018-11-02T23:44:42.560Z,81.33
2018-11-02T23:47:14.858Z,80.40
2018-11-02T23:49:47.254Z,81.13
2018-11-02T23:52:19.950Z,80.81
2018-11-02T23:54:52.822Z,81.10
2018-11-02T23:57:25.715Z,80.94
2018-11-02T23:59:59.482Z,80.65
